Time;durP1;ratioP1;P1;durP2;ratioP2;P2;SDS_P1;SDS_P2;PMS_P1;PMS_P2;Temp;Humidity;BMP_temperature;BMP_pressure;BME280_temperature;BME280_humidity;BME280_pressure;Samples;Min_cycle;Max_cycle;Signal;HPM_P1;HPM_P2
2022/03/08 00:00:10;0.00;0.00;0.62;0.00;0.00;0.62;3.60;1.80;;;23.80;21.40;;;;;;2249753;61;20594;-63
2022/03/08 00:02:57;0.00;0.00;0.62;0.00;0.00;0.62;2.20;1.53;;;23.80;21.40;;;;;;2249335;61;20404;-64
2022/03/08 00:05:44;0.00;0.00;0.62;0.00;0.00;0.62;2.97;1.77;;;23.70;21.40;;;;;;2249392;61;20361;-63
2022/03/08 00:08:28;0.00;0.00;0.62;0.00;0.00;0.62;2.00;1.70;;;23.70;21.40;;;;;;2249849;61;20376;-67
2022/03/08 00:11:16;0.00;0.00;0.62;0.00;0.00;0.62;2.90;2.07;;;23.70;21.40;;;;;;2249463;61;20733;-64
2022/03/08 00:14:02;0.00;0.00;0.62;0.00;0.00;0.62;3.90;3.30;;;23.70;21.40;;;;;;2249355;61;20377;-62
2022/03/08 00:16:47;0.00;0.00;0.62;0.00;0.00;0.62;5.60;4.00;;;23.70;21.30;;;;;;2249765;61;20583;-65
2022/03/08 00:19:32;0.00;0.00;0.62;0.00;0.00;0.62;5.73;3.40;;;23.70;21.00;;;;;;2249208;61;20801;-65
2022/03/08 00:22:16;0.00;0.00;0.62;0.00;0.00;0.62;3.83;3.43;;;23.70;21.00;;;;;;2249405;61;20392;-63
2022/03/08 00:25:01;0.00;0.00;0.62;0.00;0.00;0.62;4.83;3.70;;;23.60;20.90;;;;;;2249586;61;20361;-63
2022/03/08 00:27:47;0.00;0.00;0.62;0.00;0.00;0.62;4.33;3.83;;;23.60;21.00;;;;;;2249370;61;20369;-64
2022/03/08 00:30:34;0.00;0.00;0.62;0.00;0.00;0.62;4.80;3.20;;;23.60;21.00;;;;;;2249577;61;20384;-65
2022/03/08 00:33:20;0.00;0.00;0.62;0.00;0.00;0.62;3.27;2.93;;;23.60;21.10;;;;;;2251902;61;20487;-67
2022/03/08 00:36:05;0.00;0.00;0.62;0.00;0.00;0.62;3.10;2.50;;;23.60;21.10;;;;;;2251541;61;20360;-64
2022/03/08 00:38:50;0.00;0.00;0.62;0.00;0.00;0.62;4.87;3.20;;;23.60;21.20;;;;;;2252237;61;20403;-66
2022/03/08 00:41:35;0.00;0.00;0.62;0.00;0.00;0.62;3.47;2.73;;;23.50;21.20;;;;;;2249249;61;20412;-67
2022/03/08 00:44:19;0.00;0.00;0.62;0.00;0.00;0.62;4.17;2.60;;;23.50;21.20;;;;;;2249438;61;20737;-65
2022/03/08 00:47:06;0.00;0.00;0.62;0.00;0.00;0.62;4.87;2.70;;;23.50;21.20;;;;;;2249533;61;20369;-66
2022/03/08 00:49:51;0.00;0.00;0.62;0.00;0.00;0.62;2.50;2.13;;;23.50;21.20;;;;;;2249535;61;20508;-64
2022/03/08 00:52:36;0.00;0.00;0.62;0.00;0.00;0.62;3.40;2.70;;;23.50;21.20;;;;;;2249305;61;20396;-65
2022/03/08 00:55:23;0.00;0.00;0.62;0.00;0.00;0.62;3.63;2.53;;;23.50;21.20;;;;;;2249691;61;20392;-67
2022/03/08 00:58:09;0.00;0.00;0.62;0.00;0.00;0.62;3.70;2.67;;;23.40;21.20;;;;;;2248671;61;20361;-68
2022/03/08 01:00:54;0.00;0.00;0.62;0.00;0.00;0.62;3.80;3.10;;;23.40;21.20;;;;;;2249770;61;20583;-67
2022/03/08 01:03:39;0.00;0.00;0.62;0.00;0.00;0.62;4.30;3.00;;;23.40;21.20;;;;;;2251884;61;20436;-66
2022/03/08 01:06:25;0.00;0.00;0.62;0.00;0.00;0.62;3.20;2.63;;;23.40;21.20;;;;;;2249445;61;20368;-66
2022/03/08 01:09:11;0.00;0.00;0.62;0.00;0.00;0.62;3.27;2.40;;;23.40;21.20;;;;;;2249477;61;20760;-67
2022/03/08 01:11:56;0.00;0.00;0.62;0.00;0.00;0.62;2.73;2.03;;;23.40;21.70;;;;;;2249336;61;20425;-64
2022/03/08 01:14:41;0.00;0.00;0.62;0.00;0.00;0.62;3.50;2.67;;;23.40;21.20;;;;;;2249785;61;20618;-65
2022/03/08 01:17:26;0.00;0.00;0.62;0.00;0.00;0.62;2.57;2.23;;;23.40;21.20;;;;;;2249065;61;20469;-65
2022/03/08 01:20:13;0.00;0.00;0.62;0.00;0.00;0.62;2.77;2.03;;;23.30;21.10;;;;;;2251540;61;20737;-66
2022/03/08 01:22:58;0.00;0.00;0.62;0.00;0.00;0.62;2.73;2.13;;;23.30;21.10;;;;;;2249684;61;20610;-66
2022/03/08 01:25:42;0.00;0.00;0.62;0.00;0.00;0.62;2.60;1.93;;;23.30;21.10;;;;;;2250476;61;20606;-67
2022/03/08 01:28:27;0.00;0.00;0.62;0.00;0.00;0.62;2.90;2.20;;;23.30;21.10;;;;;;2249543;61;20756;-65
2022/03/08 01:31:12;0.00;0.00;0.62;0.00;0.00;0.62;3.03;2.33;;;23.30;21.10;;;;;;2249722;61;20753;-64
2022/03/08 01:33:57;0.00;0.00;0.62;0.00;0.00;0.62;3.00;2.33;;;23.30;21.10;;;;;;2249280;61;20388;-66
2022/03/08 01:36:43;0.00;0.00;0.62;0.00;0.00;0.62;3.27;2.50;;;23.30;21.10;;;;;;2249439;61;20400;-65
2022/03/08 01:39:28;0.00;0.00;0.62;0.00;0.00;0.62;2.63;2.17;;;23.30;21.10;;;;;;2251763;61;20368;-62
2022/03/08 01:42:17;0.00;0.00;0.62;0.00;0.00;0.62;2.30;1.90;;;23.20;21.00;;;;;;2248588;61;20634;-67
2022/03/08 01:45:04;0.00;0.00;0.62;0.00;0.00;0.62;2.23;1.53;;;23.20;21.00;;;;;;2249658;61;20373;-68
2022/03/08 01:47:49;0.00;0.00;0.62;0.00;0.00;0.62;2.77;1.90;;;23.20;21.00;;;;;;2248984;61;20364;-66
2022/03/08 01:50:35;0.00;0.00;0.62;0.00;0.00;0.62;2.70;2.00;;;23.20;21.00;;;;;;2249330;61;20783;-64
2022/03/08 01:53:21;0.00;0.00;0.62;0.00;0.00;0.62;2.00;1.60;;;23.20;21.00;;;;;;2249847;61;20396;-66
2022/03/08 01:56:07;0.00;0.00;0.62;0.00;0.00;0.62;3.17;2.70;;;23.20;21.00;;;;;;2249391;61;20583;-66
2022/03/08 01:58:52;0.00;0.00;0.62;0.00;0.00;0.62;2.70;2.00;;;23.20;21.00;;;;;;2249421;61;20357;-66
2022/03/08 02:01:37;0.00;0.00;0.62;0.00;0.00;0.62;2.80;2.20;;;23.20;21.00;;;;;;2248745;61;20365;-66
2022/03/08 02:04:22;0.00;0.00;0.62;0.00;0.00;0.62;2.70;2.03;;;23.20;21.00;;;;;;2249000;61;20384;-64
2022/03/08 02:07:07;0.00;0.00;0.62;0.00;0.00;0.62;2.47;2.27;;;23.20;21.00;;;;;;2249870;61;20488;-64
2022/03/08 02:09:53;0.00;0.00;0.62;0.00;0.00;0.62;2.07;1.70;;;23.10;20.90;;;;;;2249188;61;20431;-66
2022/03/08 02:12:38;0.00;0.00;0.62;0.00;0.00;0.62;2.43;1.97;;;23.10;20.90;;;;;;2248890;61;20480;-66
2022/03/08 02:15:26;0.00;0.00;0.62;0.00;0.00;0.62;2.70;2.50;;;23.10;20.90;;;;;;2249578;61;20361;-65
2022/03/08 02:18:11;0.00;0.00;0.62;0.00;0.00;0.62;2.23;1.80;;;23.10;20.90;;;;;;2249600;61;20653;-65
2022/03/08 02:20:55;0.00;0.00;0.62;0.00;0.00;0.62;2.10;1.60;;;23.10;20.90;;;;;;2249964;61;20356;-65
2022/03/08 02:23:41;0.00;0.00;0.62;0.00;0.00;0.62;2.27;1.90;;;23.10;20.90;;;;;;2249876;61;20610;-64
2022/03/08 02:26:26;0.00;0.00;0.62;0.00;0.00;0.62;3.17;2.10;;;23.10;20.90;;;;;;2249802;61;20492;-68
2022/03/08 02:29:11;0.00;0.00;0.62;0.00;0.00;0.62;2.77;1.90;;;23.10;20.90;;;;;;2250230;61;20800;-68
2022/03/08 02:31:56;0.00;0.00;0.62;0.00;0.00;0.62;3.80;2.13;;;23.00;20.90;;;;;;2249910;61;20451;-65
2022/03/08 02:34:41;0.00;0.00;0.62;0.00;0.00;0.62;2.63;1.93;;;23.10;21.00;;;;;;2249672;61;20423;-66
2022/03/08 02:37:36;0.00;0.00;0.62;0.00;0.00;0.62;2.50;1.83;;;23.00;20.90;;;;;;2252587;61;20578;-68
2022/03/08 02:40:26;0.00;0.00;0.62;0.00;0.00;0.62;2.50;2.30;;;23.00;21.00;;;;;;2249900;61;20364;-66
2022/03/08 02:43:12;0.00;0.00;0.62;0.00;0.00;0.62;2.70;1.70;;;23.00;21.50;;;;;;2249991;61;20748;-64
2022/03/08 02:45:56;0.00;0.00;0.62;0.00;0.00;0.62;2.60;1.97;;;23.00;21.00;;;;;;2249975;61;20400;-64
2022/03/08 02:48:41;0.00;0.00;0.62;0.00;0.00;0.62;2.20;1.73;;;23.00;21.00;;;;;;2249617;61;20588;-66
2022/03/08 02:51:25;0.00;0.00;0.62;0.00;0.00;0.62;2.00;1.80;;;23.00;21.00;;;;;;2250068;61;20357;-67
2022/03/08 02:54:10;0.00;0.00;0.62;0.00;0.00;0.62;2.80;1.80;;;23.00;21.00;;;;;;2249915;61;20360;-64
2022/03/08 02:56:56;0.00;0.00;0.62;0.00;0.00;0.62;2.63;2.30;;;23.00;21.00;;;;;;2249601;61;20364;-68
2022/03/08 02:59:41;0.00;0.00;0.62;0.00;0.00;0.62;2.97;2.00;;;22.90;21.00;;;;;;2250235;61;20361;-63
2022/03/08 03:02:25;0.00;0.00;0.62;0.00;0.00;0.62;2.37;1.97;;;22.90;21.00;;;;;;2249421;61;20388;-64
2022/03/08 03:05:11;0.00;0.00;0.62;0.00;0.00;0.62;2.17;1.73;;;22.90;21.00;;;;;;2249828;61;20400;-67
2022/03/08 03:07:56;0.00;0.00;0.62;0.00;0.00;0.62;2.30;1.70;;;22.90;21.00;;;;;;2249822;61;20577;-65
2022/03/08 03:10:41;0.00;0.00;0.62;0.00;0.00;0.62;2.50;1.90;;;22.90;21.00;;;;;;2249466;61;20457;-64
2022/03/08 03:13:27;0.00;0.00;0.62;0.00;0.00;0.62;2.70;1.73;;;22.90;21.00;;;;;;2250126;61;20460;-64
2022/03/08 03:16:11;0.00;0.00;0.62;0.00;0.00;0.62;2.27;1.80;;;22.90;21.00;;;;;;2249820;61;20372;-68
2022/03/08 03:18:56;0.00;0.00;0.62;0.00;0.00;0.62;2.70;2.33;;;22.90;21.00;;;;;;2249160;61;20361;-68
2022/03/08 03:21:41;0.00;0.00;0.62;0.00;0.00;0.62;2.87;1.93;;;22.90;21.00;;;;;;2249992;61;20405;-65
2022/03/08 03:24:25;0.00;0.00;0.62;0.00;0.00;0.62;3.90;2.23;;;22.90;21.00;;;;;;2249518;61;20400;-64
2022/03/08 03:27:10;0.00;0.00;0.62;0.00;0.00;0.62;2.20;1.90;;;22.90;21.00;;;;;;2249719;61;20424;-66
2022/03/08 03:29:56;0.00;0.00;0.62;0.00;0.00;0.62;3.20;2.20;;;22.90;21.10;;;;;;2249612;61;20436;-65
2022/03/08 03:32:41;0.00;0.00;0.62;0.00;0.00;0.62;2.40;2.10;;;22.80;21.00;;;;;;2249672;61;20381;-67
2022/03/08 03:35:26;0.00;0.00;0.62;0.00;0.00;0.62;2.37;1.97;;;22.80;21.00;;;;;;2250138;61;20400;-67
2022/03/08 03:38:10;0.00;0.00;0.62;0.00;0.00;0.62;2.23;2.03;;;22.90;21.10;;;;;;2249721;61;20388;-66
2022/03/08 03:40:55;0.00;0.00;0.62;0.00;0.00;0.62;2.47;1.93;;;22.80;21.00;;;;;;2249264;61;20621;-68
2022/03/08 03:43:39;0.00;0.00;0.62;0.00;0.00;0.62;2.70;2.20;;;22.80;21.00;;;;;;2249972;61;20380;-68
2022/03/08 03:46:25;0.00;0.00;0.62;0.00;0.00;0.62;2.73;2.10;;;22.80;21.00;;;;;;2249864;61;20365;-62
2022/03/08 03:49:09;0.00;0.00;0.62;0.00;0.00;0.62;2.30;1.70;;;22.80;21.10;;;;;;2249928;61;20380;-67
2022/03/08 03:51:54;0.00;0.00;0.62;0.00;0.00;0.62;2.50;1.90;;;22.80;21.10;;;;;;2249714;61;20709;-65
2022/03/08 03:54:38;0.00;0.00;0.62;0.00;0.00;0.62;2.77;1.73;;;22.80;21.10;;;;;;2249754;61;20748;-67
2022/03/08 03:57:23;0.00;0.00;0.62;0.00;0.00;0.62;2.43;1.77;;;22.80;21.10;;;;;;2249882;61;20369;-69
2022/03/08 04:00:12;0.00;0.00;0.62;0.00;0.00;0.62;2.27;1.90;;;22.80;21.10;;;;;;2249748;61;20433;-68
2022/03/08 04:02:58;0.00;0.00;0.62;0.00;0.00;0.62;2.37;1.77;;;22.70;21.60;;;;;;2249130;61;20407;-66
2022/03/08 04:05:43;0.00;0.00;0.62;0.00;0.00;0.62;2.03;1.40;;;22.70;21.00;;;;;;2250036;61;20401;-66
2022/03/08 04:08:27;0.00;0.00;0.62;0.00;0.00;0.62;1.97;1.60;;;22.70;21.10;;;;;;2249596;61;20379;-63
2022/03/08 04:11:12;0.00;0.00;0.62;0.00;0.00;0.62;2.20;1.90;;;22.70;21.10;;;;;;2249588;61;20380;-66
2022/03/08 04:13:56;0.00;0.00;0.62;0.00;0.00;0.62;2.30;2.03;;;22.70;21.10;;;;;;2250085;61;20379;-67
2022/03/08 04:16:41;0.00;0.00;0.62;0.00;0.00;0.62;2.30;2.10;;;22.70;21.10;;;;;;2249629;61;20584;-65
2022/03/08 04:19:27;0.00;0.00;0.62;0.00;0.00;0.62;2.33;1.90;;;22.70;21.10;;;;;;2249821;61;20409;-67
2022/03/08 04:22:11;0.00;0.00;0.62;0.00;0.00;0.62;2.50;1.80;;;22.70;21.10;;;;;;2249674;61;20383;-66
2022/03/08 04:24:56;0.00;0.00;0.62;0.00;0.00;0.62;2.27;1.60;;;22.70;21.10;;;;;;2249445;61;20368;-67
2022/03/08 04:27:40;0.00;0.00;0.62;0.00;0.00;0.62;2.43;1.90;;;22.70;21.10;;;;;;2250035;61;20392;-66
2022/03/08 04:30:25;0.00;0.00;0.62;0.00;0.00;0.62;1.60;1.30;;;22.70;21.20;;;;;;2249258;61;20412;-65
2022/03/08 04:33:09;0.00;0.00;0.62;0.00;0.00;0.62;2.53;1.93;;;22.60;21.10;;;;;;2249120;61;20384;-66
2022/03/08 04:35:55;0.00;0.00;0.62;0.00;0.00;0.62;1.90;1.50;;;22.70;21.10;;;;;;2249963;61;20352;-67
2022/03/08 04:38:40;0.00;0.00;0.62;0.00;0.00;0.62;2.00;1.70;;;22.70;21.20;;;;;;2249258;61;20384;-65
2022/03/08 04:41:25;0.00;0.00;0.62;0.00;0.00;0.62;2.27;1.67;;;22.60;21.10;;;;;;2249297;61;20365;-65
2022/03/08 04:44:10;0.00;0.00;0.62;0.00;0.00;0.62;2.20;1.50;;;22.60;21.10;;;;;;2249453;61;20376;-63
2022/03/08 04:46:56;0.00;0.00;0.62;0.00;0.00;0.62;2.10;1.90;;;22.60;21.10;;;;;;2249209;61;20761;-67
2022/03/08 04:49:40;0.00;0.00;0.62;0.00;0.00;0.62;2.10;1.57;;;22.60;21.10;;;;;;2249948;61;20518;-67
2022/03/08 04:52:26;0.00;0.00;0.62;0.00;0.00;0.62;2.17;1.90;;;22.60;21.10;;;;;;2249258;61;20376;-63
2022/03/08 04:55:11;0.00;0.00;0.62;0.00;0.00;0.62;6.07;2.00;;;22.60;21.20;;;;;;2249329;61;20682;-64
2022/03/08 04:57:55;0.00;0.00;0.62;0.00;0.00;0.62;2.40;1.70;;;22.60;21.10;;;;;;2249890;61;20411;-66
2022/03/08 05:00:41;0.00;0.00;0.62;0.00;0.00;0.62;2.27;1.90;;;22.60;21.10;;;;;;2248717;61;20444;-66
2022/03/08 05:03:26;0.00;0.00;0.62;0.00;0.00;0.62;2.77;1.97;;;22.60;21.20;;;;;;2249513;61;20396;-66
2022/03/08 05:06:10;0.00;0.00;0.62;0.00;0.00;0.62;3.30;2.90;;;22.50;21.10;;;;;;2249508;61;20368;-62
2022/03/08 05:08:56;0.00;0.00;0.62;0.00;0.00;0.62;4.17;3.77;;;22.50;21.00;;;;;;2249296;61;20452;-66
2022/03/08 05:11:41;0.00;0.00;0.62;0.00;0.00;0.62;4.33;3.93;;;22.60;20.90;;;;;;2249845;61;20546;-64
2022/03/08 05:14:25;0.00;0.00;0.62;0.00;0.00;0.62;5.07;4.27;;;22.50;21.10;;;;;;2248842;61;20405;-66
2022/03/08 05:17:10;0.00;0.00;0.62;0.00;0.00;0.62;4.50;4.10;;;22.50;20.50;;;;;;2249136;61;20429;-65
2022/03/08 05:19:54;0.00;0.00;0.62;0.00;0.00;0.62;6.20;4.77;;;22.50;20.50;;;;;;2249809;61;20416;-65
2022/03/08 05:22:39;0.00;0.00;0.62;0.00;0.00;0.62;6.00;4.90;;;22.50;20.50;;;;;;2249268;61;20380;-62
2022/03/08 05:25:25;0.00;0.00;0.62;0.00;0.00;0.62;6.10;5.27;;;22.40;20.40;;;;;;2249539;61;20361;-62
2022/03/08 05:28:10;0.00;0.00;0.62;0.00;0.00;0.62;5.53;5.00;;;22.40;20.40;;;;;;2250954;61;20371;-62
2022/03/08 05:30:55;0.00;0.00;0.62;0.00;0.00;0.62;6.70;6.10;;;22.30;20.40;;;;;;2253476;61;20384;-64
2022/03/08 05:33:40;0.00;0.00;0.62;0.00;0.00;0.62;6.20;5.37;;;22.30;20.40;;;;;;2253929;61;20386;-62
2022/03/08 05:36:24;0.00;0.00;0.62;0.00;0.00;0.62;5.93;5.33;;;22.30;20.30;;;;;;2253493;61;20395;-63
2022/03/08 05:39:09;0.00;0.00;0.62;0.00;0.00;0.62;5.97;5.47;;;22.20;20.10;;;;;;2253004;61;20363;-61
2022/03/08 05:41:55;0.00;0.00;0.62;0.00;0.00;0.62;6.33;5.73;;;22.20;20.00;;;;;;2253618;61;20588;-62
2022/03/08 05:44:40;0.00;0.00;0.62;0.00;0.00;0.62;5.87;5.27;;;22.20;19.90;;;;;;2253393;61;20368;-62
2022/03/08 05:47:24;0.00;0.00;0.62;0.00;0.00;0.62;6.50;5.90;;;22.10;19.80;;;;;;2253645;61;20574;-61
2022/03/08 05:50:11;0.00;0.00;0.62;0.00;0.00;0.62;6.23;5.63;;;22.10;19.70;;;;;;2253686;61;20603;-61
2022/03/08 05:52:56;0.00;0.00;0.62;0.00;0.00;0.62;7.00;6.30;;;22.10;19.60;;;;;;2253582;61;20428;-61
2022/03/08 05:55:42;0.00;0.00;0.62;0.00;0.00;0.62;6.87;5.70;;;22.00;19.50;;;;;;2254195;61;20403;-63
2022/03/08 05:58:28;0.00;0.00;0.62;0.00;0.00;0.62;6.63;5.93;;;22.00;19.60;;;;;;2254057;61;20656;-63
2022/03/08 06:01:12;0.00;0.00;0.62;0.00;0.00;0.62;6.07;5.40;;;22.00;19.70;;;;;;2253551;61;20364;-67
2022/03/08 06:03:57;0.00;0.00;0.62;0.00;0.00;0.62;5.00;4.50;;;21.90;19.70;;;;;;2254240;61;20383;-63
2022/03/08 06:06:41;0.00;0.00;0.62;0.00;0.00;0.62;5.10;4.57;;;21.90;19.80;;;;;;2254240;61;20402;-64
2022/03/08 06:09:26;0.00;0.00;0.62;0.00;0.00;0.62;6.13;4.80;;;21.80;19.90;;;;;;2253663;61;20464;-64
2022/03/08 06:12:10;0.00;0.00;0.62;0.00;0.00;0.62;5.20;4.03;;;21.80;20.00;;;;;;2254262;61;20462;-62
2022/03/08 06:14:56;0.00;0.00;0.62;0.00;0.00;0.62;4.00;3.70;;;21.80;20.00;;;;;;2253845;61;20444;-62
2022/03/08 06:17:41;0.00;0.00;0.62;0.00;0.00;0.62;4.33;3.93;;;21.80;20.00;;;;;;2253961;61;20375;-63
2022/03/08 06:20:25;0.00;0.00;0.62;0.00;0.00;0.62;4.57;3.33;;;21.80;20.00;;;;;;2254116;61;20356;-64
2022/03/08 06:23:10;0.00;0.00;0.62;0.00;0.00;0.62;4.17;3.70;;;21.70;20.00;;;;;;2253667;61;20386;-63
2022/03/08 06:25:55;0.00;0.00;0.62;0.00;0.00;0.62;4.97;3.67;;;21.70;20.00;;;;;;2254274;61;20419;-62
2022/03/08 06:28:39;0.00;0.00;0.62;0.00;0.00;0.62;4.50;3.60;;;21.70;20.00;;;;;;2254006;61;20363;-63
2022/03/08 06:31:25;0.00;0.00;0.62;0.00;0.00;0.62;4.20;3.20;;;21.70;20.00;;;;;;2253728;61;20404;-64
2022/03/08 06:34:09;0.00;0.00;0.62;0.00;0.00;0.62;3.43;3.00;;;21.70;20.00;;;;;;2254190;61;20391;-63
2022/03/08 06:36:54;0.00;0.00;0.62;0.00;0.00;0.62;3.53;3.20;;;21.70;20.00;;;;;;2253719;61;20608;-65
2022/03/08 06:39:38;0.00;0.00;0.62;0.00;0.00;0.62;3.40;2.80;;;21.70;20.00;;;;;;2254041;61;20572;-64
2022/03/08 06:42:23;0.00;0.00;0.62;0.00;0.00;0.62;3.20;2.90;;;21.70;20.10;;;;;;2253863;61;20407;-65
2022/03/08 06:45:09;0.00;0.00;0.62;0.00;0.00;0.62;3.30;3.00;;;21.70;20.10;;;;;;2253846;61;20367;-63
2022/03/08 06:47:54;0.00;0.00;0.62;0.00;0.00;0.62;3.63;3.33;;;21.70;20.20;;;;;;2254288;61;20359;-67
2022/03/08 06:50:40;0.00;0.00;0.62;0.00;0.00;0.62;3.80;3.27;;;21.70;20.20;;;;;;2253935;61;20609;-63
2022/03/08 06:53:24;0.00;0.00;0.62;0.00;0.00;0.62;3.50;2.80;;;21.60;20.10;;;;;;2253494;61;20619;-65
2022/03/08 06:56:09;0.00;0.00;0.62;0.00;0.00;0.62;3.47;2.90;;;21.70;20.20;;;;;;2254160;61;20399;-64
2022/03/08 06:58:54;0.00;0.00;0.62;0.00;0.00;0.62;4.37;3.07;;;21.60;20.20;;;;;;2253866;61;20436;-63
2022/03/08 07:01:38;0.00;0.00;0.62;0.00;0.00;0.62;2.90;2.60;;;21.60;20.20;;;;;;2253842;61;20359;-65
2022/03/08 07:04:25;0.00;0.00;0.62;0.00;0.00;0.62;2.57;2.37;;;21.60;20.20;;;;;;2253710;61;20364;-65
2022/03/08 07:07:09;0.00;0.00;0.62;0.00;0.00;0.62;2.67;2.47;;;21.60;20.20;;;;;;2253885;61;20356;-64
2022/03/08 07:09:54;0.00;0.00;0.62;0.00;0.00;0.62;3.00;2.53;;;21.60;20.20;;;;;;2254004;61;20759;-64
2022/03/08 07:12:38;0.00;0.00;0.62;0.00;0.00;0.62;2.80;2.40;;;21.60;20.20;;;;;;2253855;61;20787;-63
2022/03/08 07:15:23;0.00;0.00;0.62;0.00;0.00;0.62;2.77;2.47;;;21.60;20.20;;;;;;2253445;61;20363;-63
2022/03/08 07:18:08;0.00;0.00;0.62;0.00;0.00;0.62;2.70;2.43;;;21.60;20.20;;;;;;2254057;61;20364;-66
2022/03/08 07:20:54;0.00;0.00;0.62;0.00;0.00;0.62;3.20;2.67;;;21.60;20.30;;;;;;2253871;61;20418;-63
2022/03/08 07:23:39;0.00;0.00;0.62;0.00;0.00;0.62;2.70;2.40;;;21.60;20.30;;;;;;2253902;61;20459;-65
2022/03/08 07:26:24;0.00;0.00;0.62;0.00;0.00;0.62;2.30;2.10;;;21.60;20.30;;;;;;2254170;61;20736;-64
2022/03/08 07:29:09;0.00;0.00;0.62;0.00;0.00;0.62;3.60;2.67;;;21.60;20.30;;;;;;2253816;61;20363;-63
2022/03/08 07:31:53;0.00;0.00;0.62;0.00;0.00;0.62;2.73;2.50;;;21.60;20.30;;;;;;2253832;61;20368;-65
2022/03/08 07:34:37;0.00;0.00;0.62;0.00;0.00;0.62;2.60;2.17;;;21.60;20.30;;;;;;2253938;61;20380;-65
2022/03/08 07:37:24;0.00;0.00;0.62;0.00;0.00;0.62;3.03;2.73;;;21.60;20.30;;;;;;2253492;61;20364;-64
2022/03/08 07:40:10;0.00;0.00;0.62;0.00;0.00;0.62;2.53;2.07;;;21.60;20.30;;;;;;2254067;61;20430;-64
2022/03/08 07:42:55;0.00;0.00;0.62;0.00;0.00;0.62;2.27;2.00;;;21.60;20.30;;;;;;2253735;61;20387;-61
2022/03/08 07:45:39;0.00;0.00;0.62;0.00;0.00;0.62;2.83;2.47;;;21.60;20.30;;;;;;2253618;61;20756;-65
2022/03/08 07:48:24;0.00;0.00;0.62;0.00;0.00;0.62;2.30;2.10;;;21.60;20.30;;;;;;2254142;61;20348;-63
2022/03/08 07:51:08;0.00;0.00;0.62;0.00;0.00;0.62;3.40;2.53;;;21.60;20.30;;;;;;2253461;61;20395;-63
2022/03/08 07:53:54;0.00;0.00;0.62;0.00;0.00;0.62;2.63;2.10;;;21.60;20.30;;;;;;2253778;61;20504;-65
2022/03/08 07:56:38;0.00;0.00;0.62;0.00;0.00;0.62;2.70;2.50;;;21.60;20.40;;;;;;2253761;61;20758;-63
2022/03/08 07:59:23;0.00;0.00;0.62;0.00;0.00;0.62;2.90;2.40;;;21.70;20.40;;;;;;2253427;61;20368;-63
2022/03/08 08:02:08;0.00;0.00;0.62;0.00;0.00;0.62;2.67;2.20;;;21.60;20.40;;;;;;2253909;61;20411;-64
2022/03/08 08:04:52;0.00;0.00;0.62;0.00;0.00;0.62;2.30;2.03;;;21.70;20.40;;;;;;2253575;61;20375;-64
2022/03/08 08:07:37;0.00;0.00;0.62;0.00;0.00;0.62;3.00;2.30;;;21.70;20.40;;;;;;2253536;61;20418;-64
2022/03/08 08:10:23;0.00;0.00;0.62;0.00;0.00;0.62;2.10;1.83;;;21.70;20.40;;;;;;2254182;61;20383;-62
2022/03/08 08:13:08;0.00;0.00;0.62;0.00;0.00;0.62;2.40;2.17;;;21.70;20.40;;;;;;2253310;61;20767;-65
2022/03/08 08:15:52;0.00;0.00;0.62;0.00;0.00;0.62;2.77;2.10;;;21.70;20.50;;;;;;2253567;61;20367;-64
2022/03/08 08:18:37;0.00;0.00;0.62;0.00;0.00;0.62;2.27;2.07;;;21.70;20.50;;;;;;2253605;61;20748;-65
2022/03/08 08:21:22;0.00;0.00;0.62;0.00;0.00;0.62;2.43;1.93;;;21.70;20.50;;;;;;2253460;61;20360;-64
2022/03/08 08:24:07;0.00;0.00;0.62;0.00;0.00;0.62;2.13;1.73;;;21.70;20.50;;;;;;2253961;61;20739;-63
2022/03/08 08:26:53;0.00;0.00;0.62;0.00;0.00;0.62;2.60;2.10;;;21.70;20.50;;;;;;2253555;61;20719;-63
2022/03/08 08:29:37;0.00;0.00;0.62;0.00;0.00;0.62;2.30;1.97;;;21.70;20.50;;;;;;2253319;61;20395;-65
2022/03/08 08:32:22;0.00;0.00;0.62;0.00;0.00;0.62;2.60;2.20;;;21.70;20.50;;;;;;2253970;61;20453;-65
2022/03/08 08:35:07;0.00;0.00;0.62;0.00;0.00;0.62;2.53;2.30;;;21.70;20.50;;;;;;2253543;61;20407;-63
2022/03/08 08:37:52;0.00;0.00;0.62;0.00;0.00;0.62;2.20;1.87;;;21.70;20.50;;;;;;2253639;61;20707;-63
2022/03/08 08:40:36;0.00;0.00;0.62;0.00;0.00;0.62;2.40;1.90;;;21.70;20.50;;;;;;2253612;61;20744;-63
2022/03/08 08:43:23;0.00;0.00;0.62;0.00;0.00;0.62;2.47;1.77;;;21.70;20.50;;;;;;2253551;61;20379;-64
2022/03/08 08:46:07;0.00;0.00;0.62;0.00;0.00;0.62;2.87;2.00;;;21.80;20.60;;;;;;2253875;61;20371;-64
2022/03/08 08:48:52;0.00;0.00;0.62;0.00;0.00;0.62;2.60;2.10;;;21.70;20.50;;;;;;2253713;61;20431;-64
2022/03/08 08:51:36;0.00;0.00;0.62;0.00;0.00;0.62;2.83;2.40;;;21.80;20.60;;;;;;2253238;61;20375;-63
2022/03/08 08:54:21;0.00;0.00;0.62;0.00;0.00;0.62;2.10;1.87;;;21.80;21.10;;;;;;2253832;61;20379;-63
2022/03/08 08:57:05;0.00;0.00;0.62;0.00;0.00;0.62;2.53;2.03;;;21.80;20.60;;;;;;2253575;61;20368;-63
2022/03/08 08:59:51;0.00;0.00;0.62;0.00;0.00;0.62;2.47;1.83;;;21.80;20.60;;;;;;2253617;61;20368;-65
2022/03/08 09:02:36;0.00;0.00;0.62;0.00;0.00;0.62;2.70;1.67;;;21.80;20.60;;;;;;2253773;61;20384;-65
2022/03/08 09:05:20;0.00;0.00;0.62;0.00;0.00;0.62;1.60;1.33;;;21.80;20.60;;;;;;2253522;61;20394;-65
2022/03/08 09:08:05;0.00;0.00;0.62;0.00;0.00;0.62;2.53;1.93;;;21.80;20.60;;;;;;2253538;61;20419;-63
2022/03/08 09:10:50;0.00;0.00;0.62;0.00;0.00;0.62;2.67;2.20;;;21.90;20.70;;;;;;2253420;61;20827;-65
2022/03/08 09:13:34;0.00;0.00;0.62;0.00;0.00;0.62;2.27;1.80;;;21.90;20.70;;;;;;2253172;61;20607;-63
2022/03/08 09:16:20;0.00;0.00;0.62;0.00;0.00;0.62;2.77;1.30;;;21.90;20.70;;;;;;2253768;61;20595;-65
2022/03/08 09:19:04;0.00;0.00;0.62;0.00;0.00;0.62;1.93;1.43;;;21.90;20.70;;;;;;2253482;61;20367;-65
2022/03/08 09:21:49;0.00;0.00;0.62;0.00;0.00;0.62;1.90;1.60;;;21.90;20.80;;;;;;2253134;61;20747;-66
2022/03/08 09:24:35;0.00;0.00;0.62;0.00;0.00;0.62;3.00;1.97;;;21.90;20.80;;;;;;2253423;61;20399;-62
2022/03/08 09:27:20;0.00;0.00;0.62;0.00;0.00;0.62;3.07;2.23;;;21.90;20.70;;;;;;2253009;61;20633;-64
2022/03/08 09:30:05;0.00;0.00;0.62;0.00;0.00;0.62;1.90;1.60;;;21.90;20.70;;;;;;2253462;61;20391;-65
2022/03/08 09:32:52;0.00;0.00;0.62;0.00;0.00;0.62;2.17;1.67;;;21.90;20.80;;;;;;2253315;61;20422;-64
2022/03/08 09:35:37;0.00;0.00;0.62;0.00;0.00;0.62;2.30;1.60;;;21.90;20.80;;;;;;2253109;61;20411;-63
2022/03/08 09:38:22;0.00;0.00;0.62;0.00;0.00;0.62;3.20;2.10;;;22.00;20.80;;;;;;2253767;61;20368;-65
2022/03/08 09:41:07;0.00;0.00;0.62;0.00;0.00;0.62;1.90;1.50;;;22.00;20.80;;;;;;2253376;61;20364;-63
2022/03/08 09:43:51;0.00;0.00;0.62;0.00;0.00;0.62;1.70;1.30;;;22.00;20.90;;;;;;2253101;61;20453;-64
2022/03/08 09:46:36;0.00;0.00;0.62;0.00;0.00;0.62;2.13;1.47;;;22.00;20.80;;;;;;2253771;61;20363;-65
2022/03/08 09:49:22;0.00;0.00;0.62;0.00;0.00;0.62;1.87;1.40;;;22.10;20.90;;;;;;2253178;61;20391;-65
2022/03/08 09:52:07;0.00;0.00;0.62;0.00;0.00;0.62;2.07;1.40;;;22.10;20.90;;;;;;2253593;61;20407;-63
2022/03/08 09:54:52;0.00;0.00;0.62;0.00;0.00;0.62;2.37;1.33;;;22.10;20.90;;;;;;2253020;61;20360;-62
2022/03/08 09:57:37;0.00;0.00;0.62;0.00;0.00;0.62;3.43;1.80;;;22.10;20.90;;;;;;2253169;61;20379;-64
2022/03/08 10:00:23;0.00;0.00;0.62;0.00;0.00;0.62;2.47;1.63;;;22.10;20.90;;;;;;2253704;61;20383;-65
2022/03/08 10:03:11;0.00;0.00;0.62;0.00;0.00;0.62;1.93;1.50;;;22.10;20.90;;;;;;2253237;61;20423;-60
2022/03/08 10:05:58;0.00;0.00;0.62;0.00;0.00;0.62;2.20;1.70;;;22.20;21.00;;;;;;2253170;61;20763;-65
2022/03/08 10:08:42;0.00;0.00;0.62;0.00;0.00;0.62;2.10;1.70;;;22.20;21.00;;;;;;2253789;61;20375;-65
2022/03/08 10:11:27;0.00;0.00;0.62;0.00;0.00;0.62;1.97;1.30;;;22.20;21.00;;;;;;2253005;61;20484;-63
2022/03/08 10:14:14;0.00;0.00;0.62;0.00;0.00;0.62;2.20;1.60;;;22.30;21.10;;;;;;2253384;61;20356;-63
2022/03/08 10:16:58;0.00;0.00;0.62;0.00;0.00;0.62;1.83;1.30;;;22.30;21.10;;;;;;2253406;61;20367;-62
2022/03/08 10:19:47;0.00;0.00;0.62;0.00;0.00;0.62;1.93;1.20;;;22.30;21.10;;;;;;2253333;61;20359;-63
2022/03/08 10:22:38;0.00;0.00;0.62;0.00;0.00;0.62;1.83;1.50;;;22.30;21.10;;;;;;2253564;61;20383;-63
2022/03/08 10:25:26;0.00;0.00;0.62;0.00;0.00;0.62;1.70;1.43;;;22.40;21.10;;;;;;2253293;61;20724;-64
2022/03/08 10:28:10;0.00;0.00;0.62;0.00;0.00;0.62;2.03;1.63;;;22.40;21.10;;;;;;2252675;61;20347;-63
2022/03/08 10:30:55;0.00;0.00;0.62;0.00;0.00;0.62;2.00;1.60;;;22.40;21.10;;;;;;2253377;61;20787;-60
2022/03/08 10:33:40;0.00;0.00;0.62;0.00;0.00;0.62;2.13;1.40;;;22.40;21.10;;;;;;2253038;61;20460;-62
2022/03/08 10:36:26;0.00;0.00;0.62;0.00;0.00;0.62;2.20;1.70;;;22.50;21.20;;;;;;2253298;61;20388;-63
2022/03/08 10:39:14;0.00;0.00;0.62;0.00;0.00;0.62;2.03;1.67;;;22.50;21.20;;;;;;2253619;61;20363;-60
2022/03/08 10:42:00;0.00;0.00;0.62;0.00;0.00;0.62;1.70;1.40;;;22.50;21.20;;;;;;2253746;61;20739;-64
2022/03/08 10:44:44;0.00;0.00;0.62;0.00;0.00;0.62;1.97;1.53;;;22.60;21.20;;;;;;2254116;61;20367;-65
2022/03/08 10:47:38;0.00;0.00;0.62;0.00;0.00;0.62;1.97;1.30;;;22.60;21.20;;;;;;2254096;61;20414;-64
2022/03/08 10:50:26;0.00;0.00;0.62;0.00;0.00;0.62;1.50;1.00;;;22.60;21.20;;;;;;2253693;61;20387;-63